createdAt,value
2022-11-11T00:01:04.000Z,7.21
2022-11-11T00:15:44.000Z,7.94
2022-11-11T00:30:22.000Z,8.17
2022-11-11T00:45:00.000Z,8.24
2022-11-11T00:59:38.000Z,8.01
2022-11-11T01:14:17.000Z,8.06
2022-11-11T01:28:55.000Z,8.18
2022-11-11T01:43:31.000Z,8.13
2022-11-11T01:58:10.000Z,8.27
2022-11-11T02:12:49.000Z,8.3
2022-11-11T02:27:27.000Z,8.25
2022-11-11T02:42:05.000Z,8.22
2022-11-11T02:56:43.000Z,8.2
2022-11-11T03:11:21.000Z,8.13
2022-11-11T03:26:00.000Z,8.11
2022-11-11T03:40:37.000Z,7.94
2022-11-11T03:55:14.000Z,8
2022-11-11T04:09:49.000Z,7.8
2022-11-11T04:24:29.000Z,7.63
2022-11-11T04:39:05.000Z,7.52
2022-11-11T04:53:40.000Z,7.35
2022-11-11T05:08:18.000Z,7.43
2022-11-11T05:22:56.000Z,7.43
2022-11-11T05:37:34.000Z,7.57
2022-11-11T05:52:13.000Z,7.26
2022-11-11T06:06:50.000Z,6.51
2022-11-11T06:21:28.000Z,6.55
2022-11-11T06:36:05.000Z,5.99
2022-11-11T06:50:43.000Z,5.98
2022-11-11T07:05:22.000Z,6.14
2022-11-11T07:19:55.000Z,6.54
2022-11-11T07:34:34.000Z,7
2022-11-11T07:49:14.000Z,6.95
2022-11-11T08:03:54.000Z,7.38
2022-11-11T08:18:31.000Z,8.01
2022-11-11T08:33:09.000Z,8.63
2022-11-11T08:47:49.000Z,9.68
2022-11-11T09:02:33.000Z,12.24
2022-11-11T09:17:19.000Z,13.18
2022-11-11T09:32:01.000Z,13.81
2022-11-11T09:36:56.000Z,13.54
2022-11-11T09:41:52.000Z,16.14
2022-11-11T09:46:47.000Z,17.6
2022-11-11T09:51:43.000Z,17.92
2022-11-11T09:56:37.000Z,17.96
2022-11-11T10:01:32.000Z,17.21
2022-11-11T10:06:27.000Z,15.77
2022-11-11T10:11:21.000Z,16.48
2022-11-11T10:16:17.000Z,16.19
2022-11-11T10:21:11.000Z,14.16
2022-11-11T10:26:05.000Z,14.48
2022-11-11T10:30:59.000Z,16.11
2022-11-11T10:35:54.000Z,15.65
2022-11-11T10:40:47.000Z,19.66
2022-11-11T10:45:42.000Z,21.42
2022-11-11T10:50:38.000Z,21.18
2022-11-11T10:55:34.000Z,19.74
2022-11-11T11:00:28.000Z,19.37
2022-11-11T11:05:23.000Z,19.99
2022-11-11T11:10:17.000Z,20.68
2022-11-11T11:15:12.000Z,20.72
2022-11-11T11:20:07.000Z,19.68
2022-11-11T11:25:02.000Z,21.93
2022-11-11T11:29:57.000Z,22.44
2022-11-11T11:34:51.000Z,20.66
2022-11-11T11:39:45.000Z,21.63
2022-11-11T11:44:40.000Z,23.84
2022-11-11T11:49:36.000Z,22.59
2022-11-11T11:59:25.000Z,23.14
2022-11-11T12:04:19.000Z,24.27
2022-11-11T12:09:14.000Z,25.8
2022-11-11T12:14:09.000Z,25.61
2022-11-11T12:19:04.000Z,24.99
2022-11-11T12:23:57.000Z,23.51
2022-11-11T12:28:54.000Z,22.69
2022-11-11T12:33:45.000Z,25.27
2022-11-11T12:38:40.000Z,24.76
2022-11-11T12:43:35.000Z,25.57
2022-11-11T12:48:30.000Z,24.49
2022-11-11T12:53:25.000Z,24.78
2022-11-11T12:58:18.000Z,27.47
2022-11-11T13:03:11.000Z,24.49
2022-11-11T13:08:06.000Z,25.33
2022-11-11T13:13:00.000Z,26.33
2022-11-11T13:17:55.000Z,23.64
2022-11-11T13:22:49.000Z,25.13
2022-11-11T13:27:44.000Z,23.24
2022-11-11T13:32:37.000Z,23.58
2022-11-11T13:37:32.000Z,26.54
2022-11-11T13:42:27.000Z,25.69
2022-11-11T13:47:19.000Z,26.15
2022-11-11T13:52:14.000Z,25.27
2022-11-11T13:57:08.000Z,25.19
2022-11-11T14:02:03.000Z,25.14
2022-11-11T14:06:57.000Z,25.07
2022-11-11T14:11:51.000Z,25.25
2022-11-11T14:16:46.000Z,25.14
2022-11-11T14:21:40.000Z,23.62
2022-11-11T14:26:34.000Z,21.52
2022-11-11T14:31:28.000Z,22.31
2022-11-11T14:36:22.000Z,21.87
2022-11-11T14:41:16.000Z,21.98
2022-11-11T14:46:09.000Z,21.19
2022-11-11T14:51:03.000Z,21.12
2022-11-11T14:55:58.000Z,21.38
2022-11-11T15:00:51.000Z,19.24
2022-11-11T15:05:44.000Z,17.68
2022-11-11T15:10:36.000Z,16.49
2022-11-11T15:15:29.000Z,15.97
2022-11-11T15:20:23.000Z,15.36
2022-11-11T15:25:17.000Z,15.17
2022-11-11T15:30:10.000Z,14.71
2022-11-11T15:35:05.000Z,14.47
2022-11-11T15:39:59.000Z,14.24
2022-11-11T15:44:53.000Z,13.9
2022-11-11T15:49:47.000Z,13.85
2022-11-11T15:54:41.000Z,13.22
2022-11-11T15:59:35.000Z,12.85
2022-11-11T16:04:29.000Z,12.48
2022-11-11T16:09:23.000Z,12.11
2022-11-11T16:14:18.000Z,11.91
2022-11-11T16:19:12.000Z,11.59
2022-11-11T16:24:06.000Z,11.21
2022-11-11T16:29:01.000Z,11.13
2022-11-11T16:33:55.000Z,11.11
2022-11-11T16:38:49.000Z,11.03
2022-11-11T16:43:44.000Z,10.55
2022-11-11T16:48:38.000Z,10.53
2022-11-11T16:53:32.000Z,10.35
2022-11-11T16:58:26.000Z,10.24
2022-11-11T17:03:21.000Z,10.06
2022-11-11T17:08:15.000Z,10.05
2022-11-11T17:13:10.000Z,9.67
2022-11-11T17:18:03.000Z,9.5
2022-11-11T17:22:57.000Z,9.47
2022-11-11T17:27:51.000Z,9.38
2022-11-11T17:32:45.000Z,9.33
2022-11-11T17:37:39.000Z,9.21
2022-11-11T17:42:34.000Z,9.17
2022-11-11T17:47:27.000Z,8.99
2022-11-11T17:52:21.000Z,8.89
2022-11-11T17:57:16.000Z,8.66
2022-11-11T18:02:10.000Z,8.54
2022-11-11T18:07:04.000Z,8.36
2022-11-11T18:11:59.000Z,8.36
2022-11-11T18:16:53.000Z,8.28
2022-11-11T18:21:48.000Z,8.19
2022-11-11T18:26:42.000Z,8.15
2022-11-11T18:31:36.000Z,8.19
2022-11-11T18:36:28.000Z,7.98
2022-11-11T18:41:22.000Z,7.88
2022-11-11T18:46:16.000Z,7.83
2022-11-11T18:51:10.000Z,7.68
2022-11-11T18:56:04.000Z,7.54
2022-11-11T19:00:57.000Z,7.58
2022-11-11T19:05:52.000Z,7.56
2022-11-11T19:10:46.000Z,7.63
2022-11-11T19:15:40.000Z,7.45
2022-11-11T19:20:35.000Z,7.39
2022-11-11T19:25:28.000Z,7.39
2022-11-11T19:30:23.000Z,7.31
2022-11-11T19:35:16.000Z,7.34
2022-11-11T19:40:11.000Z,7.01
2022-11-11T19:45:03.000Z,7.02
2022-11-11T19:49:56.000Z,6.76
2022-11-11T19:54:51.000Z,6.74
2022-11-11T19:59:45.000Z,6.63
2022-11-11T20:04:39.000Z,6.58
2022-11-11T20:09:33.000Z,6.39
2022-11-11T20:14:30.000Z,6.31
2022-11-11T20:19:20.000Z,6.29
2022-11-11T20:24:14.000Z,6.29
2022-11-11T20:29:09.000Z,6.22
2022-11-11T20:34:03.000Z,6.23
2022-11-11T20:38:57.000Z,6.1
2022-11-11T20:43:51.000Z,5.99
2022-11-11T20:48:44.000Z,6.01
2022-11-11T20:53:38.000Z,6
2022-11-11T20:58:32.000Z,6.05
2022-11-11T21:03:26.000Z,5.92
